Time;durP1;ratioP1;P1;durP2;ratioP2;P2;SDS_P1;SDS_P2;PMS_P1;PMS_P2;Temp;Humidity;BMP_temperature;BMP_pressure;BME280_temperature;BME280_humidity;BME280_pressure;Samples;Min_cycle;Max_cycle;Signal;HPM_P1;HPM_P2
2021/01/04 00:01:11;;;;;;;19.67;12.35;;;;;;;;;;5037392;28;20116;-82
2021/01/04 00:03:56;;;;;;;20.17;12.40;;;;;;;;;;5046399;28;20029;-82
2021/01/04 00:06:22;;;;;;;18.95;11.70;;;;;;;;;;5056499;28;20433;-81
2021/01/04 00:08:59;;;;;;;21.33;12.57;;;;;;;;;;5057259;28;20032;-84
2021/01/04 00:11:31;;;;;;;21.30;13.73;;;;;;;;;;5057280;28;20021;-84
2021/01/04 00:14:11;;;;;;;19.13;12.38;;;;;;;;;;5056302;28;20413;-82
2021/01/04 00:16:37;;;;;;;20.40;12.70;;;;;;;;;;5057339;28;20044;-84
2021/01/04 00:19:19;;;;;;;19.80;12.05;;;;;;;;;;5056262;28;20415;-83
2021/01/04 00:22:04;;;;;;;20.30;13.07;;;;;;;;;;5057600;28;20033;-83
2021/01/04 00:24:39;;;;;;;20.17;12.25;;;;;;;;;;5057104;28;20052;-83
2021/01/04 00:27:26;;;;;;;19.42;12.23;;;;;;;;;;5056042;28;20051;-83
2021/01/04 00:29:56;;;;;;;21.40;12.77;;;;;;;;;;5056999;28;20450;-83
2021/01/04 00:32:23;;;;;;;23.63;14.02;;;;;;;;;;5061011;28;20326;-82
2021/01/04 00:34:52;;;;;;;29.13;16.13;;;;;;;;;;5061027;28;20025;-82
2021/01/04 00:37:18;;;;;;;21.45;13.68;;;;;;;;;;5059973;28;20025;-82
2021/01/04 00:39:51;;;;;;;21.35;13.05;;;;;;;;;;5059077;28;20017;-83
2021/01/04 00:42:17;;;;;;;22.67;13.90;;;;;;;;;;5048304;28;20120;-82
2021/01/04 00:44:43;;;;;;;18.95;12.35;;;;;;;;;;5052807;28;20112;-80
2021/01/04 00:47:16;;;;;;;18.88;11.85;;;;;;;;;;5051069;28;20398;-84
2021/01/04 00:49:47;;;;;;;19.65;12.45;;;;;;;;;;5050205;28;20026;-82
2021/01/04 00:52:33;;;;;;;20.27;12.17;;;;;;;;;;5048247;28;20033;-80
2021/01/04 00:55:02;;;;;;;19.70;11.82;;;;;;;;;;5044812;28;20475;-80
2021/01/04 00:57:51;;;;;;;19.95;11.73;;;;;;;;;;5042981;28;20049;-80
2021/01/04 01:00:26;;;;;;;17.80;11.20;;;;;;;;;;5049717;28;20152;-80
2021/01/04 01:03:12;;;;;;;20.75;11.88;;;;;;;;;;5044348;28;20036;-80
2021/01/04 01:05:58;;;;;;;18.33;11.23;;;;;;;;;;5049206;28;20144;-80
2021/01/04 01:08:30;;;;;;;18.42;11.75;;;;;;;;;;5041230;28;20064;-79
2021/01/04 01:10:59;;;;;;;17.73;10.95;;;;;;;;;;5051679;28;20029;-82
2021/01/04 01:13:41;;;;;;;20.27;11.68;;;;;;;;;;5060049;28;20029;-81
2021/01/04 01:16:07;;;;;;;18.02;11.07;;;;;;;;;;5059957;28;20021;-81
2021/01/04 01:18:38;;;;;;;16.83;10.43;;;;;;;;;;5060070;28;20036;-81
2021/01/04 01:21:06;;;;;;;16.55;11.07;;;;;;;;;;5060025;28;20028;-81
2021/01/04 01:23:34;;;;;;;20.02;11.45;;;;;;;;;;5058909;28;20017;-81
2021/01/04 01:26:09;;;;;;;17.05;11.52;;;;;;;;;;5059878;28;20017;-80
2021/01/04 01:28:45;;;;;;;17.00;10.75;;;;;;;;;;5058670;28;20025;-81
2021/01/04 01:31:46;;;;;;;15.50;11.10;;;;;;;;;;5059800;28;20055;-81
2021/01/04 01:34:23;;;;;;;16.92;10.43;;;;;;;;;;5057837;28;20156;-81
2021/01/04 01:36:58;;;;;;;18.65;10.77;;;;;;;;;;5057870;28;20037;-80
2021/01/04 01:39:30;;;;;;;15.88;10.55;;;;;;;;;;5040968;28;20033;-80
2021/01/04 01:42:15;;;;;;;17.60;10.57;;;;;;;;;;5057405;28;20036;-80
2021/01/04 01:44:48;;;;;;;21.35;11.07;;;;;;;;;;5057682;28;20112;-81
2021/01/04 01:47:33;;;;;;;16.70;10.85;;;;;;;;;;5057685;28;20032;-80
2021/01/04 01:50:02;;;;;;;16.70;10.00;;;;;;;;;;5057603;28;20033;-80
2021/01/04 01:52:28;;;;;;;16.23;9.80;;;;;;;;;;5040630;28;20025;-79
2021/01/04 01:55:01;;;;;;;15.50;10.27;;;;;;;;;;5057621;28;20090;-79
2021/01/04 01:57:39;;;;;;;17.75;11.20;;;;;;;;;;5057174;28;20035;-79
2021/01/04 02:00:38;;;;;;;15.70;10.43;;;;;;;;;;5057313;28;20032;-79
2021/01/04 02:03:10;;;;;;;16.40;10.82;;;;;;;;;;4997838;28;20092;-79
2021/01/04 02:05:54;;;;;;;15.68;10.35;;;;;;;;;;4997909;28;20031;-79
2021/01/04 02:08:23;;;;;;;14.30;10.05;;;;;;;;;;5009145;28;20053;-79
2021/01/04 02:10:54;;;;;;;16.77;10.50;;;;;;;;;;5001152;28;20033;-79
2021/01/04 02:13:20;;;;;;;16.48;10.57;;;;;;;;;;5000977;28;20038;-79
2021/01/04 02:15:50;;;;;;;16.10;11.15;;;;;;;;;;5017327;28;20034;-80
2021/01/04 02:18:19;;;;;;;15.18;9.90;;;;;;;;;;5017227;28;20055;-79
2021/01/04 02:20:56;;;;;;;13.18;9.68;;;;;;;;;;5000742;28;20437;-80
2021/01/04 02:23:49;;;;;;;17.08;9.68;;;;;;;;;;5017247;28;20026;-80
2021/01/04 02:26:17;;;;;;;16.02;10.32;;;;;;;;;;4977926;28;20082;-79
2021/01/04 02:29:09;;;;;;;18.02;10.57;;;;;;;;;;4977945;28;20026;-79
2021/01/04 02:31:37;;;;;;;20.88;10.82;;;;;;;;;;4964093;28;20039;-79
2021/01/04 02:34:05;;;;;;;21.15;11.90;;;;;;;;;;4977824;28;20043;-79
2021/01/04 02:36:32;;;;;;;17.20;10.63;;;;;;;;;;4977902;28;20038;-79
2021/01/04 02:39:21;;;;;;;16.80;10.57;;;;;;;;;;4990328;28;20054;-79
2021/01/04 02:41:53;;;;;;;16.17;9.98;;;;;;;;;;4987270;28;20325;-79
2021/01/04 02:44:24;;;;;;;15.48;9.82;;;;;;;;;;4997156;28;20057;-80
2021/01/04 02:46:52;;;;;;;16.52;10.35;;;;;;;;;;4997154;28;20346;-80
2021/01/04 02:49:30;;;;;;;16.77;10.18;;;;;;;;;;4997046;28;20125;-80
2021/01/04 02:52:02;;;;;;;14.95;9.85;;;;;;;;;;4980683;28;20058;-80
2021/01/04 02:54:32;;;;;;;19.77;11.48;;;;;;;;;;4995949;28;20027;-80
2021/01/04 02:57:11;;;;;;;15.45;10.38;;;;;;;;;;4997113;28;20417;-79
2021/01/04 02:59:40;;;;;;;14.32;9.25;;;;;;;;;;4996790;28;20033;-80
2021/01/04 03:02:16;;;;;;;16.05;10.60;;;;;;;;;;4988406;28;20033;-81
2021/01/04 03:04:42;;;;;;;15.48;10.48;;;;;;;;;;5057794;28;20033;-80
2021/01/04 03:07:11;;;;;;;14.55;9.85;;;;;;;;;;5057768;28;20292;-80
2021/01/04 03:09:41;;;;;;;14.65;9.90;;;;;;;;;;5058160;28;20029;-80
2021/01/04 03:12:13;;;;;;;15.63;10.48;;;;;;;;;;5057887;28;20109;-81
2021/01/04 03:15:08;;;;;;;16.60;9.90;;;;;;;;;;5057710;28;20025;-80
2021/01/04 03:17:58;;;;;;;14.40;9.35;;;;;;;;;;5055660;28;20059;-80
2021/01/04 03:20:25;;;;;;;16.23;10.40;;;;;;;;;;5039083;28;20031;-80
2021/01/04 03:22:52;;;;;;;13.73;9.30;;;;;;;;;;5055816;28;20124;-80
2021/01/04 03:25:21;;;;;;;15.13;9.82;;;;;;;;;;5055647;28;20095;-80
2021/01/04 03:27:47;;;;;;;15.38;9.15;;;;;;;;;;5055632;28;20041;-80
2021/01/04 03:30:14;;;;;;;18.17;9.50;;;;;;;;;;5055611;28;20357;-80
2021/01/04 03:32:40;;;;;;;14.43;10.00;;;;;;;;;;5055428;28;20033;-80
2021/01/04 03:35:07;;;;;;;12.98;9.20;;;;;;;;;;5038910;28;20128;-80
2021/01/04 03:37:33;;;;;;;16.23;9.77;;;;;;;;;;5055236;28;20052;-80
2021/01/04 03:39:59;;;;;;;14.50;9.52;;;;;;;;;;5055612;28;20043;-80
2021/01/04 03:42:25;;;;;;;15.43;10.10;;;;;;;;;;5055576;28;20067;-80
2021/01/04 03:44:51;;;;;;;16.17;10.30;;;;;;;;;;5055388;28;20100;-80
2021/01/04 03:47:17;;;;;;;17.33;10.65;;;;;;;;;;5055328;28;20037;-80
2021/01/04 03:49:43;;;;;;;22.67;11.55;;;;;;;;;;5055263;28;20048;-80
2021/01/04 03:52:09;;;;;;;20.77;12.77;;;;;;;;;;5055361;28;20025;-80
2021/01/04 03:54:35;;;;;;;15.73;10.43;;;;;;;;;;5056555;28;20040;-80
2021/01/04 03:57:01;;;;;;;14.20;9.95;;;;;;;;;;5057103;28;20032;-80
2021/01/04 03:59:27;;;;;;;13.50;9.50;;;;;;;;;;5056665;28;20056;-80
2021/01/04 04:01:54;;;;;;;15.50;9.63;;;;;;;;;;5057012;28;20032;-80
2021/01/04 04:04:20;;;;;;;14.05;9.88;;;;;;;;;;5057100;28;20049;-79
2021/01/04 04:06:46;;;;;;;16.15;11.20;;;;;;;;;;5055486;28;20415;-80
2021/01/04 04:09:13;;;;;;;18.23;11.05;;;;;;;;;;5056956;28;20071;-79
2021/01/04 04:11:39;;;;;;;14.93;10.25;;;;;;;;;;5057071;28;20029;-80
2021/01/04 04:14:05;;;;;;;18.27;10.30;;;;;;;;;;5056837;28;20021;-80
2021/01/04 04:16:32;;;;;;;16.60;9.98;;;;;;;;;;5056801;28;20025;-80
2021/01/04 04:18:58;;;;;;;18.23;9.88;;;;;;;;;;5055693;28;20029;-80
2021/01/04 04:21:24;;;;;;;17.42;11.02;;;;;;;;;;5056799;28;20100;-80
2021/01/04 04:23:50;;;;;;;18.25;11.48;;;;;;;;;;5055722;28;20319;-80
2021/01/04 04:26:23;;;;;;;17.15;10.60;;;;;;;;;;5056815;28;20025;-80
2021/01/04 04:28:49;;;;;;;16.27;10.52;;;;;;;;;;5056832;28;20033;-80
2021/01/04 04:31:15;;;;;;;17.27;11.35;;;;;;;;;;5056792;28;20029;-79
2021/01/04 04:33:41;;;;;;;16.35;10.30;;;;;;;;;;5056738;28;20040;-80
2021/01/04 04:36:08;;;;;;;16.70;10.23;;;;;;;;;;5056579;28;20431;-80
2021/01/04 04:38:34;;;;;;;15.98;9.65;;;;;;;;;;5056617;28;20033;-79
2021/01/04 04:41:01;;;;;;;17.10;9.70;;;;;;;;;;5056558;28;20549;-79
2021/01/04 04:43:27;;;;;;;13.80;9.02;;;;;;;;;;5056485;28;20414;-80
2021/01/04 04:45:54;;;;;;;15.32;9.45;;;;;;;;;;5056436;28;20510;-79
2021/01/04 04:48:31;;;;;;;17.70;10.30;;;;;;;;;;5056488;28;20028;-80
2021/01/04 04:51:14;;;;;;;17.20;10.10;;;;;;;;;;5056616;28;20025;-80
2021/01/04 04:53:39;;;;;;;;;;;;;;;;;;5057167;28;20029;-80
2021/01/04 04:56:21;;;;;;;16.95;10.93;;;;;;;;;;5056371;28;19988;-80
2021/01/04 04:58:52;;;;;;;16.27;11.02;;;;;;;;;;5056304;28;20052;-80
2021/01/04 05:01:27;;;;;;;17.35;11.68;;;;;;;;;;5056312;28;20139;-79
2021/01/04 05:04:02;;;;;;;19.38;12.55;;;;;;;;;;5056500;28;20091;-80
2021/01/04 05:06:44;;;;;;;23.27;13.75;;;;;;;;;;5056200;28;20049;-79
2021/01/04 05:09:26;;;;;;;18.75;12.15;;;;;;;;;;5056315;28;20060;-80
2021/01/04 05:12:21;;;;;;;21.33;10.90;;;;;;;;;;5056575;28;20033;-80
2021/01/04 05:14:53;;;;;;;17.27;11.40;;;;;;;;;;5054625;28;20037;-80
2021/01/04 05:17:36;;;;;;;21.70;12.07;;;;;;;;;;5054884;28;20021;-81
2021/01/04 05:20:21;;;;;;;24.30;13.30;;;;;;;;;;5041583;28;20045;-81
2021/01/04 05:22:53;;;;;;;19.05;11.15;;;;;;;;;;5058157;28;20029;-81
2021/01/04 05:25:42;;;;;;;25.70;12.50;;;;;;;;;;5058042;28;20040;-80
2021/01/04 05:28:40;;;;;;;21.10;11.20;;;;;;;;;;4998560;28;20073;-79
2021/01/04 05:31:18;;;;;;;20.95;11.18;;;;;;;;;;4998540;28;20034;-79
2021/01/04 05:33:57;;;;;;;18.65;11.07;;;;;;;;;;4998501;28;20060;-80
2021/01/04 05:36:23;;;;;;;18.08;11.27;;;;;;;;;;4998453;28;20113;-80
2021/01/04 05:39:12;;;;;;;20.63;12.23;;;;;;;;;;4998286;28;20121;-80
2021/01/04 05:41:44;;;;;;;21.23;13.45;;;;;;;;;;4998499;28;20351;-81
2021/01/04 05:44:28;;;;;;;16.00;11.20;;;;;;;;;;4998451;28;20031;-81
2021/01/04 05:47:21;;;;;;;16.23;11.68;;;;;;;;;;4998364;28;20312;-81
2021/01/04 05:50:05;;;;;;;16.27;10.88;;;;;;;;;;4940171;29;20113;-81
2021/01/04 05:52:31;;;;;;;17.35;11.27;;;;;;;;;;4959397;29;20031;-81
2021/01/04 05:54:57;;;;;;;17.25;11.32;;;;;;;;;;4943669;28;20070;-81
2021/01/04 05:57:23;;;;;;;20.52;12.55;;;;;;;;;;4959468;29;20019;-80
2021/01/04 05:59:51;;;;;;;17.77;12.27;;;;;;;;;;4942847;28;20070;-80
2021/01/04 06:02:23;;;;;;;17.05;11.98;;;;;;;;;;4959177;29;20031;-79
2021/01/04 06:04:49;;;;;;;19.92;12.77;;;;;;;;;;4973978;28;20034;-80
2021/01/04 06:07:15;;;;;;;17.45;12.27;;;;;;;;;;4981623;28;20046;-80
2021/01/04 06:09:41;;;;;;;19.27;13.10;;;;;;;;;;4981587;28;20044;-80
2021/01/04 06:12:14;;;;;;;24.60;15.57;;;;;;;;;;4997774;28;20069;-79
2021/01/04 06:14:41;;;;;;;27.02;15.52;;;;;;;;;;4997685;28;20073;-78
2021/01/04 06:17:08;;;;;;;24.98;14.50;;;;;;;;;;4997853;28;20039;-78
2021/01/04 06:19:36;;;;;;;21.38;13.80;;;;;;;;;;4991326;28;20437;-79
2021/01/04 06:22:12;;;;;;;16.50;12.43;;;;;;;;;;4978376;28;20322;-79
2021/01/04 06:24:39;;;;;;;18.27;12.13;;;;;;;;;;4977831;28;20070;-80
2021/01/04 06:27:16;;;;;;;34.40;25.88;;;;;;;;;;5019103;28;20071;-81
2021/01/04 06:29:45;;;;;;;18.60;12.38;;;;;;;;;;5037403;28;20053;-81
2021/01/04 06:32:24;;;;;;;18.92;12.95;;;;;;;;;;5039016;28;20038;-81
2021/01/04 06:34:56;;;;;;;20.75;13.10;;;;;;;;;;5038464;28;20319;-81
2021/01/04 06:37:24;;;;;;;18.50;11.88;;;;;;;;;;5037579;28;20026;-81
2021/01/04 06:40:06;;;;;;;16.58;10.57;;;;;;;;;;5038457;28;20045;-81
2021/01/04 06:42:37;;;;;;;15.95;11.13;;;;;;;;;;5037947;28;20124;-81
2021/01/04 06:45:06;;;;;;;21.20;14.05;;;;;;;;;;5038424;28;20052;-81
2021/01/04 06:47:51;;;;;;;23.35;16.00;;;;;;;;;;5038321;28;20026;-81
2021/01/04 06:50:23;;;;;;;24.48;16.13;;;;;;;;;;5038502;28;20029;-81
2021/01/04 06:52:49;;;;;;;;;;;;;;;;;;5037724;28;20033;-81
2021/01/04 06:55:30;;;;;;;27.48;18.33;;;;;;;;;;5038373;28;19905;-81
2021/01/04 06:57:56;;;;;;;25.83;18.10;;;;;;;;;;5038082;28;20033;-81
2021/01/04 07:00:35;;;;;;;27.98;17.17;;;;;;;;;;5038189;28;20071;-81
2021/01/04 07:03:10;;;;;;;26.83;17.30;;;;;;;;;;5038112;28;20097;-81
2021/01/04 07:05:55;;;;;;;26.15;16.67;;;;;;;;;;5037979;28;20453;-81
2021/01/04 07:08:30;;;;;;;27.88;17.42;;;;;;;;;;5038035;28;20049;-82
2021/01/04 07:11:10;;;;;;;29.23;17.92;;;;;;;;;;5038152;28;20025;-80
2021/01/04 07:13:36;;;;;;;31.08;17.88;;;;;;;;;;5037790;28;20112;-81
2021/01/04 07:16:09;;;;;;;32.42;18.55;;;;;;;;;;5037881;28;20032;-82
2021/01/04 07:18:44;;;;;;;31.38;17.88;;;;;;;;;;5037910;28;20071;-81
2021/01/04 07:21:21;;;;;;;25.73;16.65;;;;;;;;;;5037822;28;20028;-81
2021/01/04 07:23:56;;;;;;;29.75;16.98;;;;;;;;;;5038027;28;20032;-82
2021/01/04 07:26:25;;;;;;;22.77;14.88;;;;;;;;;;5037968;28;20296;-81
2021/01/04 07:28:54;;;;;;;26.67;16.15;;;;;;;;;;5036995;28;20450;-81
2021/01/04 07:31:28;;;;;;;22.98;14.90;;;;;;;;;;5037624;28;20419;-81
2021/01/04 07:33:56;;;;;;;23.63;15.30;;;;;;;;;;5037599;28;20036;-81
2021/01/04 07:36:30;;;;;;;25.55;16.38;;;;;;;;;;5037756;28;20403;-81
2021/01/04 07:39:14;;;;;;;42.22;22.70;;;;;;;;;;5037672;28;20025;-81
2021/01/04 07:41:59;;;;;;;48.88;28.15;;;;;;;;;;5036322;28;20037;-81
2021/01/04 07:44:48;;;;;;;112.70;50.53;;;;;;;;;;5037716;28;20030;-81
2021/01/04 07:47:20;;;;;;;88.53;45.67;;;;;;;;;;5036367;28;20067;-81
2021/01/04 07:49:46;;;;;;;73.22;33.72;;;;;;;;;;5037310;28;20087;-81
2021/01/04 07:52:36;;;;;;;76.97;33.55;;;;;;;;;;5037335;28;20085;-81
2021/01/04 07:55:12;;;;;;;62.95;28.52;;;;;;;;;;5035499;28;20045;-81
2021/01/04 07:57:56;;;;;;;92.20;33.85;;;;;;;;;;5035308;28;20327;-81
2021/01/04 08:00:40;;;;;;;108.88;35.00;;;;;;;;;;5018671;28;20029;-81
2021/01/04 08:03:19;;;;;;;113.75;37.05;;;;;;;;;;5035343;28;20426;-81
2021/01/04 08:06:04;;;;;;;127.63;40.20;;;;;;;;;;5018746;28;20323;-81
2021/01/04 08:08:41;;;;;;;132.02;41.10;;;;;;;;;;5035229;28;20088;-81
2021/01/04 08:11:27;;;;;;;121.93;40.45;;;;;;;;;;5035239;28;20025;-81
2021/01/04 08:14:12;;;;;;;109.40;38.47;;;;;;;;;;4937815;29;20032;-81
2021/01/04 08:17:01;;;;;;;106.93;41.47;;;;;;;;;;4937974;29;20047;-80
2021/01/04 08:19:27;;;;;;;124.32;48.75;;;;;;;;;;4914834;29;20343;-81
2021/01/04 08:22:05;;;;;;;116.90;49.40;;;;;;;;;;4918707;29;20354;-81
2021/01/04 08:24:35;;;;;;;130.07;52.83;;;;;;;;;;4902978;29;20041;-81
2021/01/04 08:27:20;;;;;;;104.85;44.95;;;;;;;;;;4918852;29;20033;-81
2021/01/04 08:29:54;;;;;;;80.95;37.75;;;;;;;;;;4903400;29;20036;-81
2021/01/04 08:32:32;;;;;;;111.45;47.88;;;;;;;;;;4918869;29;20040;-81
2021/01/04 08:35:10;;;;;;;133.48;59.15;;;;;;;;;;4918723;29;20136;-81
2021/01/04 08:37:37;;;;;;;86.93;40.35;;;;;;;;;;4917293;29;20061;-81
2021/01/04 08:40:22;;;;;;;65.65;30.75;;;;;;;;;;4896308;29;20427;-81
2021/01/04 08:43:00;;;;;;;68.82;32.50;;;;;;;;;;4904782;29;20041;-81
2021/01/04 08:45:30;;;;;;;60.13;30.45;;;;;;;;;;4903055;29;20461;-83
2021/01/04 08:47:57;;;;;;;61.70;32.78;;;;;;;;;;4919313;29;20091;-83
2021/01/04 08:50:23;;;;;;;69.45;36.58;;;;;;;;;;4923422;28;20038;-84
2021/01/04 08:52:51;;;;;;;78.13;39.17;;;;;;;;;;4980832;28;20117;-84
2021/01/04 08:55:44;;;;;;;79.63;40.33;;;;;;;;;;5001291;28;20026;-84
2021/01/04 08:58:33;;;;;;;75.68;39.50;;;;;;;;;;5040573;28;20038;-84
2021/01/04 09:01:05;;;;;;;80.93;40.53;;;;;;;;;;5040986;28;20319;-84
2021/01/04 09:03:33;;;;;;;83.28;39.15;;;;;;;;;;5041334;28;20056;-84
2021/01/04 09:06:13;;;;;;;83.85;43.83;;;;;;;;;;5039924;28;20037;-84
2021/01/04 09:08:43;;;;;;;78.70;38.30;;;;;;;;;;5040867;28;20044;-84
2021/01/04 09:11:11;;;;;;;93.75;42.80;;;;;;;;;;5040812;28;20351;-84
2021/01/04 09:13:39;;;;;;;69.80;34.22;;;;;;;;;;5040466;28;20034;-83
2021/01/04 09:16:20;;;;;;;69.20;33.45;;;;;;;;;;5039229;28;20033;-84
2021/01/04 09:18:51;;;;;;;64.45;32.25;;;;;;;;;;5040084;28;20048;-84
2021/01/04 09:21:31;;;;;;;64.47;31.00;;;;;;;;;;5040841;28;20021;-86
2021/01/04 09:24:16;;;;;;;67.28;30.70;;;;;;;;;;5040544;28;20026;-84
2021/01/04 09:26:43;;;;;;;74.13;32.78;;;;;;;;;;5040489;28;20044;-84
2021/01/04 09:29:12;;;;;;;57.78;28.52;;;;;;;;;;5039305;28;20553;-84
2021/01/04 09:31:49;;;;;;;96.63;42.92;;;;;;;;;;5039465;28;20088;-84
2021/01/04 09:34:16;;;;;;;57.08;27.38;;;;;;;;;;5040493;28;20049;-85
2021/01/04 09:36:43;;;;;;;56.95;28.15;;;;;;;;;;5040161;28;20152;-84
2021/01/04 09:39:09;;;;;;;40.20;22.35;;;;;;;;;;5040106;28;20164;-84
2021/01/04 09:41:36;;;;;;;50.72;26.02;;;;;;;;;;5040066;28;20026;-84
2021/01/04 09:44:06;;;;;;;40.95;23.15;;;;;;;;;;5039133;28;20030;-84
2021/01/04 09:46:35;;;;;;;38.17;23.38;;;;;;;;;;5040259;28;20144;-84
2021/01/04 09:49:04;;;;;;;35.42;21.67;;;;;;;;;;5039947;28;20078;-84
2021/01/04 09:51:40;;;;;;;34.65;19.92;;;;;;;;;;5040146;28;20075;-85
2021/01/04 09:54:08;;;;;;;33.08;19.33;;;;;;;;;;5040079;28;20033;-85
2021/01/04 09:56:38;;;;;;;38.20;22.48;;;;;;;;;;5038900;28;20314;-85
2021/01/04 09:59:23;;;;;;;37.08;23.50;;;;;;;;;;5038674;28;20030;-84
2021/01/04 10:01:54;;;;;;;34.28;20.80;;;;;;;;;;5040189;28;20021;-84
2021/01/04 10:04:26;;;;;;;39.90;22.73;;;;;;;;;;5038223;28;20032;-85
2021/01/04 10:06:52;;;;;;;;;;;;;;;;;;5040083;28;20038;-85
2021/01/04 10:09:19;;;;;;;106.75;50.78;;;;;;;;;;5039745;28;19952;-85
2021/01/04 10:11:49;;;;;;;85.97;40.95;;;;;;;;;;5039798;28;20025;-85
2021/01/04 10:14:16;;;;;;;60.28;32.83;;;;;;;;;;5039681;28;20029;-85
2021/01/04 10:16:43;;;;;;;59.47;32.53;;;;;;;;;;5039631;28;20033;-85
2021/01/04 10:19:23;;;;;;;66.88;35.17;;;;;;;;;;5038553;28;20033;-85
2021/01/04 10:21:49;;;;;;;55.63;31.08;;;;;;;;;;5039662;28;20024;-85
2021/01/04 10:24:20;;;;;;;85.25;44.60;;;;;;;;;;5039283;28;20096;-85
2021/01/04 10:26:48;;;;;;;94.10;45.67;;;;;;;;;;5038577;28;20032;-85
2021/01/04 10:29:16;;;;;;;104.22;53.20;;;;;;;;;;5038293;28;20038;-85
2021/01/04 10:31:42;;;;;;;96.78;48.33;;;;;;;;;;5039273;28;20079;-85
2021/01/04 10:34:10;;;;;;;61.03;33.85;;;;;;;;;;5039069;28;20095;-86
2021/01/04 10:36:37;;;;;;;76.43;38.85;;;;;;;;;;5039438;28;20025;-86
2021/01/04 10:39:20;;;;;;;463.73;317.60;;;;;;;;;;5039251;28;20056;-85
2021/01/04 10:41:46;;;;;;;200.23;122.97;;;;;;;;;;5039104;28;20079;-85
2021/01/04 10:44:21;;;;;;;98.53;45.15;;;;;;;;;;5038833;28;20116;-85
2021/01/04 10:46:54;;;;;;;136.52;77.82;;;;;;;;;;5039082;28;20087;-85
2021/01/04 10:49:25;;;;;;;142.02;85.45;;;;;;;;;;5038438;28;20030;-85
2021/01/04 10:51:51;;;;;;;489.35;164.38;;;;;;;;;;5038038;28;20022;-86
2021/01/04 10:54:19;;;;;;;892.03;375.75;;;;;;;;;;5037800;28;20041;-85
2021/01/04 10:57:08;;;;;;;529.92;229.82;;;;;;;;;;5038930;28;20083;-86
2021/01/04 10:59:34;;;;;;;506.75;213.07;;;;;;;;;;5038109;28;20033;-86
2021/01/04 11:02:00;;;;;;;242.23;94.55;;;;;;;;;;5038822;28;20311;-86
2021/01/04 11:04:27;;;;;;;255.95;98.75;;;;;;;;;;5037739;28;20052;-86
2021/01/04 11:07:01;;;;;;;400.63;149.65;;;;;;;;;;5037399;28;20037;-86
2021/01/04 11:09:31;;;;;;;360.58;134.30;;;;;;;;;;5037690;28;20029;-86
2021/01/04 11:12:13;;;;;;;294.27;116.47;;;;;;;;;;5038537;28;20075;-86
2021/01/04 11:14:52;;;;;;;96.40;41.75;;;;;;;;;;5038428;28;20049;-86
2021/01/04 11:17:23;;;;;;;135.02;53.28;;;;;;;;;;5037171;28;20060;-86
2021/01/04 11:19:50;;;;;;;362.40;139.55;;;;;;;;;;5038466;28;20462;-86
2021/01/04 11:22:21;;;;;;;358.45;141.10;;;;;;;;;;5038211;28;20069;-86
2021/01/04 11:24:47;;;;;;;359.83;139.55;;;;;;;;;;5038125;28;20028;-86
2021/01/04 11:27:14;;;;;;;283.33;111.03;;;;;;;;;;5037290;28;20017;-86
2021/01/04 11:29:41;;;;;;;657.00;282.70;;;;;;;;;;5038197;28;20026;-86
2021/01/04 11:32:08;;;;;;;353.73;140.63;;;;;;;;;;5038178;28;20034;-85
2021/01/04 11:34:34;;;;;;;500.17;215.52;;;;;;;;;;5038115;28;20030;-86
2021/01/04 11:37:00;;;;;;;171.38;64.50;;;;;;;;;;5038013;28;20033;-86
2021/01/04 11:39:27;;;;;;;272.40;110.95;;;;;;;;;;5037881;28;20017;-86
2021/01/04 11:41:53;;;;;;;610.42;281.05;;;;;;;;;;5037125;28;20358;-86
2021/01/04 11:44:19;;;;;;;313.85;124.40;;;;;;;;;;5037866;28;20013;-85
2021/01/04 11:46:45;;;;;;;480.77;217.18;;;;;;;;;;5038055;28;20045;-86
2021/01/04 11:49:11;;;;;;;492.42;230.80;;;;;;;;;;5037916;28;20124;-86
2021/01/04 11:51:37;;;;;;;211.57;86.78;;;;;;;;;;5037671;28;20079;-86
2021/01/04 11:54:04;;;;;;;974.40;531.67;;;;;;;;;;5037758;28;20311;-86
2021/01/04 11:56:30;;;;;;;510.95;258.35;;;;;;;;;;5036880;28;20030;-86
2021/01/04 11:58:57;;;;;;;461.25;225.60;;;;;;;;;;5037602;28;20028;-85
2021/01/04 12:01:24;;;;;;;297.40;127.95;;;;;;;;;;5036677;28;20022;-85
2021/01/04 12:03:51;;;;;;;334.30;144.70;;;;;;;;;;5037493;28;20052;-86
2021/01/04 12:06:17;;;;;;;357.33;156.30;;;;;;;;;;5036303;28;20047;-85
2021/01/04 12:08:43;;;;;;;167.77;69.80;;;;;;;;;;5037467;28;20099;-85
2021/01/04 12:11:10;;;;;;;369.67;172.85;;;;;;;;;;5037423;28;20030;-84
2021/01/04 12:13:36;;;;;;;300.73;146.73;;;;;;;;;;5036588;28;20029;-85
2021/01/04 12:16:03;;;;;;;164.93;80.15;;;;;;;;;;5037706;28;20025;-85
2021/01/04 12:18:29;;;;;;;364.80;164.50;;;;;;;;;;5037413;28;20030;-85
2021/01/04 12:20:55;;;;;;;227.02;98.03;;;;;;;;;;5037568;28;20116;-85
2021/01/04 12:23:23;;;;;;;637.35;305.70;;;;;;;;;;5036668;28;20331;-86
2021/01/04 12:25:49;;;;;;;451.80;186.82;;;;;;;;;;5037442;28;20032;-85
2021/01/04 12:28:15;;;;;;;283.38;115.72;;;;;;;;;;5041080;28;20030;-85
2021/01/04 12:30:41;;;;;;;678.20;300.98;;;;;;;;;;5041435;28;20123;-85
2021/01/04 12:33:07;;;;;;;203.90;78.13;;;;;;;;;;5041418;28;20033;-85
2021/01/04 12:35:34;;;;;;;331.20;121.63;;;;;;;;;;5041581;28;20119;-86
2021/01/04 12:38:01;;;;;;;354.25;137.68;;;;;;;;;;5041172;28;20029;-86
2021/01/04 12:40:30;;;;;;;429.20;181.00;;;;;;;;;;5041312;28;20045;-86
2021/01/04 12:42:57;;;;;;;318.15;136.20;;;;;;;;;;5040721;28;20033;-85
2021/01/04 12:45:24;;;;;;;199.20;83.43;;;;;;;;;;5040181;28;20029;-81
2021/01/04 12:47:50;;;;;;;99.53;45.75;;;;;;;;;;5041132;28;20030;-86
2021/01/04 12:50:16;;;;;;;101.22;41.42;;;;;;;;;;5040096;28;20026;-85
2021/01/04 12:52:43;;;;;;;128.25;49.30;;;;;;;;;;5041042;28;20022;-85
2021/01/04 12:55:09;;;;;;;124.75;47.72;;;;;;;;;;5040836;28;20021;-85
2021/01/04 12:57:35;;;;;;;170.02;64.85;;;;;;;;;;5041401;28;20026;-85
2021/01/04 13:00:01;;;;;;;100.10;38.35;;;;;;;;;;5041372;28;20384;-85
2021/01/04 13:02:27;;;;;;;74.53;29.70;;;;;;;;;;5041162;28;20022;-85
2021/01/04 13:04:53;;;;;;;48.15;19.98;;;;;;;;;;5040887;28;20033;-85
2021/01/04 13:07:19;;;;;;;28.92;13.73;;;;;;;;;;5040615;28;20073;-85
2021/01/04 13:09:46;;;;;;;61.00;28.17;;;;;;;;;;5039817;28;20125;-87
2021/01/04 13:12:12;;;;;;;17.40;10.02;;;;;;;;;;5040749;28;20029;-86
2021/01/04 13:14:39;;;;;;;32.05;16.63;;;;;;;;;;5040894;28;20032;-87
2021/01/04 13:17:05;;;;;;;43.78;22.92;;;;;;;;;;5040304;28;20026;-78
2021/01/04 13:19:31;;;;;;;28.58;14.27;;;;;;;;;;5039864;28;20033;-78
2021/01/04 13:22:01;;;;;;;29.45;14.95;;;;;;;;;;5040061;28;20022;-78
2021/01/04 13:24:27;;;;;;;46.15;23.20;;;;;;;;;;5039971;28;20033;-77
2021/01/04 13:26:54;;;;;;;47.03;24.23;;;;;;;;;;5039966;28;20022;-78
2021/01/04 13:29:28;;;;;;;29.67;15.40;;;;;;;;;;5040023;28;20398;-78
2021/01/04 13:32:10;;;;;;;65.78;31.95;;;;;;;;;;5040002;28;20029;-77
2021/01/04 13:34:36;;;;;;;37.70;21.60;;;;;;;;;;5039828;28;20026;-78
2021/01/04 13:37:02;;;;;;;51.47;29.52;;;;;;;;;;5039666;28;20038;-77
2021/01/04 13:39:28;;;;;;;43.63;25.48;;;;;;;;;;5037351;28;20428;-77
2021/01/04 13:41:56;;;;;;;41.50;25.27;;;;;;;;;;5039623;28;20407;-78
2021/01/04 13:44:23;;;;;;;46.67;26.77;;;;;;;;;;5039655;28;20411;-78
2021/01/04 13:46:49;;;;;;;42.00;23.73;;;;;;;;;;5039736;28;20047;-78
2021/01/04 13:49:16;;;;;;;37.40;21.55;;;;;;;;;;5039652;28;20116;-78
2021/01/04 13:51:46;;;;;;;53.47;29.20;;;;;;;;;;5039348;28;20060;-78
2021/01/04 13:54:12;;;;;;;41.90;24.38;;;;;;;;;;5039680;28;20033;-78
2021/01/04 13:56:38;;;;;;;58.80;36.38;;;;;;;;;;5039437;28;20037;-78
2021/01/04 13:59:04;;;;;;;50.00;29.02;;;;;;;;;;5038606;28;20140;-78
2021/01/04 14:01:30;;;;;;;54.55;28.95;;;;;;;;;;5039297;28;20026;-79
2021/01/04 14:03:57;;;;;;;48.65;28.35;;;;;;;;;;5037984;28;20052;-78
2021/01/04 14:06:23;;;;;;;55.17;30.08;;;;;;;;;;5038922;28;20029;-78
2021/01/04 14:08:50;;;;;;;66.30;35.60;;;;;;;;;;5038030;28;20045;-78
2021/01/04 14:11:20;;;;;;;87.78;40.25;;;;;;;;;;5039324;28;20017;-78
2021/01/04 14:13:47;;;;;;;133.18;51.70;;;;;;;;;;5039135;28;20312;-78
2021/01/04 14:16:13;;;;;;;224.40;72.68;;;;;;;;;;5039110;28;20032;-78
2021/01/04 14:18:39;;;;;;;104.38;40.67;;;;;;;;;;5039094;28;20358;-78
2021/01/04 14:21:08;;;;;;;198.85;61.67;;;;;;;;;;5037831;28;20033;-78
2021/01/04 14:23:37;;;;;;;284.17;85.90;;;;;;;;;;5038791;28;20032;-78
2021/01/04 14:26:03;;;;;;;283.10;84.63;;;;;;;;;;5039078;28;20076;-78
2021/01/04 14:28:29;;;;;;;230.73;71.55;;;;;;;;;;5037721;28;20323;-78
2021/01/04 14:30:55;;;;;;;223.75;71.63;;;;;;;;;;5038765;28;20125;-78
2021/01/04 14:33:21;;;;;;;236.82;70.50;;;;;;;;;;5038702;28;20033;-78
2021/01/04 14:35:48;;;;;;;303.92;91.55;;;;;;;;;;5038655;28;20037;-78
2021/01/04 14:38:14;;;;;;;251.65;82.10;;;;;;;;;;5038640;28;20386;-78
2021/01/04 14:40:40;;;;;;;124.80;46.83;;;;;;;;;;5038523;28;20304;-78